createdAt,value
2022-11-05T00:02:45.332Z,7.50
2022-11-05T00:05:31.663Z,7.15
2022-11-05T00:08:20.645Z,7.43
2022-11-05T00:10:47.892Z,7.22
2022-11-05T00:13:34.281Z,6.80
2022-11-05T00:16:39.883Z,6.72
2022-11-05T00:19:07.329Z,6.95
2022-11-05T00:21:55.202Z,6.45
2022-11-05T00:24:41.712Z,7.05
2022-11-05T00:27:09.263Z,8.20
2022-11-05T00:29:36.606Z,7.60
2022-11-05T00:32:04.050Z,7.38
2022-11-05T00:34:31.841Z,7.55
2022-11-05T00:36:59.079Z,7.13
2022-11-05T00:39:26.279Z,5.88
2022-11-05T00:42:12.266Z,6.18
2022-11-05T00:44:58.294Z,6.07
2022-11-05T00:47:44.407Z,7.10
2022-11-05T00:50:11.806Z,6.72
2022-11-05T00:52:57.946Z,6.28
2022-11-05T00:55:43.095Z,6.53
2022-11-05T00:58:11.919Z,7.10
2022-11-05T01:00:41.177Z,6.75
2022-11-05T01:03:14.030Z,6.77
2022-11-05T01:05:50.369Z,6.63
2022-11-05T01:08:19.342Z,6.63
2022-11-05T01:10:49.850Z,7.05
2022-11-05T01:13:19.737Z,6.57
2022-11-05T01:18:14.471Z,6.65
2022-11-05T01:20:41.764Z,7.07
2022-11-05T01:23:13.448Z,6.38
2022-11-05T01:25:42.429Z,6.38
2022-11-05T01:28:10.261Z,6.35
2022-11-05T01:30:38.125Z,5.63
2022-11-05T01:33:05.767Z,6.15
2022-11-05T01:35:33.059Z,6.18
2022-11-05T01:38:00.394Z,5.65
2022-11-05T01:40:28.095Z,5.20
2022-11-05T01:42:55.369Z,5.80
2022-11-05T01:45:27.334Z,5.53
2022-11-05T01:48:16.334Z,5.63
2022-11-05T01:50:56.862Z,5.40
2022-11-05T01:53:30.980Z,6.05
2022-11-05T01:56:23.868Z,5.82
2022-11-05T01:58:53.924Z,5.57
2022-11-05T02:01:21.279Z,6.00
2022-11-05T02:03:51.075Z,5.55
2022-11-05T02:06:19.133Z,6.38
2022-11-05T02:09:03.652Z,5.60
2022-11-05T02:11:31.387Z,5.78
2022-11-05T02:13:58.892Z,6.10
2022-11-05T02:16:32.104Z,5.80
2022-11-05T02:19:13.007Z,5.55
2022-11-05T02:21:52.538Z,5.47
2022-11-05T02:24:41.542Z,5.30
2022-11-05T02:27:46.162Z,5.22
2022-11-05T02:30:34.822Z,5.97
2022-11-05T02:33:10.777Z,5.65
2022-11-05T02:35:47.158Z,5.18
2022-11-05T02:38:48.567Z,6.32
2022-11-05T02:41:25.693Z,6.18
2022-11-05T02:44:05.005Z,5.60
2022-11-05T02:46:54.148Z,5.32
2022-11-05T02:49:25.674Z,5.93
2022-11-05T02:51:58.258Z,5.40
2022-11-05T02:54:44.053Z,5.63
2022-11-05T02:57:11.286Z,4.80
2022-11-05T02:59:38.560Z,4.88
2022-11-05T03:02:06.115Z,5.28
2022-11-05T03:04:33.520Z,4.50
2022-11-05T03:07:19.042Z,5.25
2022-11-05T03:10:28.373Z,5.25
2022-11-05T03:13:04.821Z,5.03
2022-11-05T03:15:42.240Z,5.20
2022-11-05T03:18:18.625Z,5.13
2022-11-05T03:21:08.856Z,5.15
2022-11-05T03:26:20.656Z,4.97
2022-11-05T03:28:52.040Z,5.43
2022-11-05T03:31:20.425Z,5.22
2022-11-05T03:33:52.240Z,5.47
2022-11-05T03:36:32.315Z,4.97
2022-11-05T03:39:03.598Z,4.25
2022-11-05T03:41:33.202Z,4.00
2022-11-05T03:44:04.137Z,4.43
2022-11-05T03:46:38.746Z,4.22
2022-11-05T03:49:07.733Z,4.20
2022-11-05T03:51:41.913Z,4.70
2022-11-05T03:54:09.610Z,4.25
2022-11-05T03:56:45.276Z,4.00
2022-11-05T03:59:12.743Z,4.22
2022-11-05T04:01:41.838Z,4.00
2022-11-05T04:04:09.541Z,4.10
2022-11-05T04:06:55.931Z,3.90
2022-11-05T04:09:41.987Z,3.70
2022-11-05T04:12:31.156Z,3.85
2022-11-05T04:14:58.346Z,3.67
2022-11-05T04:17:25.556Z,4.47
2022-11-05T04:20:11.054Z,3.42
2022-11-05T04:22:56.943Z,4.00
2022-11-05T04:25:24.319Z,3.30
2022-11-05T04:27:51.935Z,3.33
2022-11-05T04:30:19.775Z,3.22
2022-11-05T04:33:15.461Z,3.35
2022-11-05T04:35:45.218Z,3.28
2022-11-05T04:38:15.192Z,4.18
2022-11-05T04:40:43.161Z,3.28
2022-11-05T04:43:15.168Z,3.33
2022-11-05T04:45:43.494Z,3.08
2022-11-05T04:48:11.148Z,3.05
2022-11-05T04:50:38.492Z,3.50
2022-11-05T04:53:05.712Z,3.97
2022-11-05T04:55:33.471Z,3.60
2022-11-05T04:58:00.720Z,3.28
2022-11-05T05:00:28.107Z,3.35
2022-11-05T05:02:55.362Z,3.85
2022-11-05T05:05:23.089Z,3.55
2022-11-05T05:07:50.337Z,3.50
2022-11-05T05:10:17.637Z,3.00
2022-11-05T05:12:44.885Z,3.67
2022-11-05T05:15:12.134Z,3.65
2022-11-05T05:17:39.373Z,3.28
2022-11-05T05:20:25.988Z,3.08
2022-11-05T05:22:56.392Z,3.50
2022-11-05T05:25:23.743Z,3.08
2022-11-05T05:27:51.092Z,3.53
2022-11-05T05:30:18.556Z,3.17
2022-11-05T05:32:45.732Z,3.40
2022-11-05T05:35:13.115Z,3.30
2022-11-05T05:37:40.375Z,2.95
2022-11-05T05:40:08.996Z,3.17
2022-11-05T05:42:41.802Z,3.22
2022-11-05T05:45:11.456Z,3.20
2022-11-05T05:47:38.765Z,3.92
2022-11-05T05:50:06.264Z,4.00
2022-11-05T05:52:33.550Z,3.65
2022-11-05T05:55:00.723Z,3.17
2022-11-05T05:57:28.464Z,3.53
2022-11-05T05:59:55.672Z,3.08
2022-11-05T06:02:23.178Z,3.33
2022-11-05T06:04:50.543Z,3.88
2022-11-05T06:07:17.726Z,3.42
2022-11-05T06:09:45.049Z,3.40
2022-11-05T06:12:12.491Z,3.35
2022-11-05T06:14:40.086Z,8.32
2022-11-05T06:17:07.668Z,10.90
2022-11-05T06:19:34.929Z,4.63
2022-11-05T06:22:02.137Z,3.40
2022-11-05T06:24:29.483Z,3.72
2022-11-05T06:26:56.748Z,3.63
2022-11-05T06:29:24.020Z,3.42
2022-11-05T06:31:51.254Z,3.15
2022-11-05T06:34:18.440Z,3.42
2022-11-05T06:36:45.666Z,3.42
2022-11-05T06:39:12.899Z,2.88
2022-11-05T06:42:03.958Z,3.17
2022-11-05T06:44:27.935Z,3.15
2022-11-05T06:46:55.247Z,3.33
2022-11-05T06:49:24.687Z,3.80
2022-11-05T06:51:52.531Z,2.88
2022-11-05T06:54:19.942Z,3.13
2022-11-05T06:56:47.321Z,3.78
2022-11-05T06:59:14.827Z,2.95
2022-11-05T07:01:42.169Z,2.97
2022-11-05T07:04:12.085Z,3.75
2022-11-05T07:06:39.437Z,3.33
2022-11-05T07:09:06.603Z,2.55
2022-11-05T07:11:34.124Z,3.42
2022-11-05T07:14:01.369Z,3.60
2022-11-05T07:16:28.705Z,2.88
2022-11-05T07:18:56.076Z,2.90
2022-11-05T07:21:23.345Z,3.00
2022-11-05T07:23:50.648Z,2.90
2022-11-05T07:26:17.814Z,2.65
2022-11-05T07:28:45.455Z,3.83
2022-11-05T07:31:14.151Z,3.30
2022-11-05T07:33:41.380Z,2.97
2022-11-05T07:36:08.975Z,2.60
2022-11-05T07:38:36.243Z,3.10
2022-11-05T07:41:03.822Z,3.50
2022-11-05T07:43:31.268Z,3.47
2022-11-05T07:45:58.527Z,2.80
2022-11-05T07:48:25.734Z,3.15
2022-11-05T07:50:55.882Z,3.72
2022-11-05T07:53:25.603Z,3.60
2022-11-05T07:55:52.948Z,3.13
2022-11-05T07:58:20.275Z,3.35
2022-11-05T08:00:47.893Z,2.67
2022-11-05T08:03:17.491Z,3.20
2022-11-05T08:05:47.121Z,2.90
2022-11-05T08:08:16.983Z,3.37
2022-11-05T08:10:44.729Z,2.78
2022-11-05T08:13:13.417Z,3.15
2022-11-05T08:15:42.656Z,2.95
2022-11-05T08:18:15.462Z,3.40
2022-11-05T08:20:44.100Z,3.15
2022-11-05T08:23:11.687Z,3.20
2022-11-05T08:25:39.892Z,3.78
2022-11-05T08:28:10.915Z,6.78
2022-11-05T08:30:38.535Z,4.07
2022-11-05T08:33:09.060Z,3.35
2022-11-05T08:35:37.425Z,2.92
2022-11-05T08:38:06.416Z,2.80
2022-11-05T08:40:35.220Z,2.75
2022-11-05T08:43:04.115Z,2.47
2022-11-05T08:45:31.756Z,3.08
2022-11-05T08:48:03.775Z,3.42
2022-11-05T08:50:31.880Z,2.92
2022-11-05T08:52:59.452Z,2.90
2022-11-05T08:55:27.252Z,2.97
2022-11-05T08:57:58.191Z,3.10
2022-11-05T09:00:26.896Z,3.03
2022-11-05T09:02:54.447Z,2.95
2022-11-05T09:05:21.648Z,3.00
2022-11-05T09:07:48.875Z,3.47
2022-11-05T09:10:16.154Z,2.80
2022-11-05T09:12:46.376Z,2.60
2022-11-05T09:15:13.832Z,2.95
2022-11-05T09:17:41.233Z,2.38
2022-11-05T09:20:10.328Z,2.70
2022-11-05T09:22:42.166Z,2.88
2022-11-05T09:25:10.828Z,3.05
2022-11-05T09:27:38.214Z,2.60
2022-11-05T09:30:05.877Z,2.78
2022-11-05T09:32:33.498Z,2.60
2022-11-05T09:35:01.272Z,2.53
2022-11-05T09:37:29.247Z,2.55
2022-11-05T09:39:56.492Z,2.05
2022-11-05T09:42:31.412Z,2.63
2022-11-05T09:45:04.544Z,2.35
2022-11-05T09:47:45.479Z,2.35
2022-11-05T09:50:16.048Z,2.05
2022-11-05T09:52:43.665Z,1.77
2022-11-05T09:55:36.061Z,2.00
2022-11-05T09:58:09.835Z,2.10
2022-11-05T10:00:37.072Z,2.10
2022-11-05T10:03:07.007Z,1.92
2022-11-05T10:05:35.075Z,1.77
2022-11-05T10:08:10.638Z,2.83
2022-11-05T10:10:54.333Z,2.80
2022-11-05T10:13:35.410Z,2.65
2022-11-05T10:16:07.532Z,1.90
2022-11-05T10:18:37.064Z,1.92
2022-11-05T10:21:04.614Z,1.77
2022-11-05T10:23:32.290Z,2.22
2022-11-05T10:26:04.056Z,2.20
2022-11-05T10:28:33.309Z,2.50
2022-11-05T10:31:04.500Z,2.55
2022-11-05T10:33:40.192Z,1.98
2022-11-05T10:36:11.837Z,2.00
2022-11-05T10:38:39.031Z,2.63
2022-11-05T10:41:15.453Z,2.00
2022-11-05T10:43:48.653Z,2.30
2022-11-05T10:46:30.182Z,2.10
2022-11-05T10:49:06.663Z,2.58
2022-11-05T10:51:34.116Z,2.30
2022-11-05T10:54:05.918Z,2.28
2022-11-05T10:56:36.866Z,2.33
2022-11-05T10:59:11.902Z,2.95
2022-11-05T11:01:39.543Z,2.53
2022-11-05T11:04:12.269Z,2.72
2022-11-05T11:06:44.822Z,2.40
2022-11-05T11:09:31.173Z,2.15
2022-11-05T11:12:14.932Z,2.50
2022-11-05T11:14:42.282Z,2.55
2022-11-05T11:17:27.730Z,2.60
2022-11-05T11:20:22.041Z,3.03
2022-11-05T11:22:59.595Z,2.85
2022-11-05T11:25:30.863Z,3.00
2022-11-05T11:28:03.196Z,2.90
2022-11-05T11:30:32.076Z,3.17
2022-11-05T11:33:06.930Z,3.47
2022-11-05T11:35:36.959Z,3.38
2022-11-05T11:38:05.195Z,2.78
2022-11-05T11:40:37.418Z,2.97
2022-11-05T11:43:14.436Z,2.92
2022-11-05T11:45:50.108Z,2.85
2022-11-05T11:48:20.068Z,3.00
2022-11-05T11:50:48.573Z,3.58
2022-11-05T11:53:20.036Z,2.67
2022-11-05T11:56:05.424Z,3.33
2022-11-05T11:58:40.593Z,3.40
2022-11-05T12:01:39.013Z,2.88
2022-11-05T12:04:20.460Z,2.63
2022-11-05T12:06:55.691Z,6.88
2022-11-05T12:09:47.908Z,14.68
2022-11-05T12:12:16.746Z,8.32
2022-11-05T12:14:55.386Z,7.97
2022-11-05T12:17:41.515Z,4.90
2022-11-05T12:20:20.625Z,3.67
2022-11-05T12:23:24.963Z,2.60
2022-11-05T12:26:16.689Z,3.35
2022-11-05T12:29:18.300Z,2.95
2022-11-05T12:32:08.262Z,3.00
2022-11-05T12:35:04.700Z,3.33
2022-11-05T12:38:13.629Z,2.75
2022-11-05T12:40:56.833Z,2.40
2022-11-05T12:44:00.839Z,2.80
2022-11-05T12:46:48.870Z,2.33
2022-11-05T12:49:37.912Z,2.42
2022-11-05T12:52:07.777Z,2.45
2022-11-05T12:55:03.113Z,2.28
2022-11-05T12:57:32.675Z,2.20
2022-11-05T13:00:22.193Z,3.00
2022-11-05T13:02:49.468Z,2.78
2022-11-05T13:05:45.302Z,3.15
2022-11-05T13:08:16.492Z,2.80
2022-11-05T13:13:21.164Z,2.90
2022-11-05T13:15:54.409Z,3.28
2022-11-05T13:18:27.395Z,2.75
2022-11-05T13:20:56.604Z,2.85
2022-11-05T13:23:37.993Z,2.83
2022-11-05T13:26:57.877Z,2.92
2022-11-05T13:29:46.921Z,3.53
2022-11-05T13:32:35.735Z,2.28
2022-11-05T13:35:05.587Z,2.78
2022-11-05T13:37:57.491Z,2.65
2022-11-05T13:40:44.527Z,2.67
2022-11-05T13:43:33.111Z,2.60
2022-11-05T13:46:06.409Z,2.70
2022-11-05T13:48:44.962Z,3.15
2022-11-05T13:51:37.656Z,2.50
2022-11-05T13:54:33.111Z,2.88
2022-11-05T13:57:09.605Z,2.63
2022-11-05T13:59:39.633Z,3.00
2022-11-05T14:02:39.204Z,2.88
2022-11-05T14:05:08.536Z,2.95
2022-11-05T14:07:38.549Z,2.77
2022-11-05T14:10:09.359Z,3.42
2022-11-05T14:12:39.052Z,3.10
2022-11-05T14:15:18.886Z,2.78
2022-11-05T14:17:58.442Z,2.20
2022-11-05T14:20:32.016Z,3.45
2022-11-05T14:23:25.956Z,2.65
2022-11-05T14:25:55.788Z,3.10
2022-11-05T14:28:35.052Z,3.30
2022-11-05T14:31:03.699Z,3.17
2022-11-05T14:33:35.097Z,3.38
2022-11-05T14:36:20.744Z,2.83
2022-11-05T14:38:52.988Z,3.10
2022-11-05T14:41:21.178Z,2.65
2022-11-05T14:43:57.332Z,3.45
2022-11-05T14:46:24.744Z,2.30
2022-11-05T14:48:55.205Z,2.95
2022-11-05T14:51:26.111Z,3.60
2022-11-05T14:54:05.560Z,2.47
2022-11-05T14:57:02.602Z,2.85
2022-11-05T14:59:31.869Z,2.67
2022-11-05T15:02:09.899Z,2.78
2022-11-05T15:04:42.730Z,2.55
2022-11-05T15:07:09.925Z,2.83
2022-11-05T15:10:10.621Z,2.85
2022-11-05T15:12:51.587Z,3.15
2022-11-05T15:15:24.762Z,3.00
2022-11-05T15:17:58.370Z,2.90
2022-11-05T15:20:37.287Z,3.05
2022-11-05T15:23:11.247Z,3.70
2022-11-05T15:26:16.440Z,3.20
2022-11-05T15:28:46.845Z,3.17
2022-11-05T15:31:14.070Z,3.35
2022-11-05T15:33:42.789Z,3.92
2022-11-05T15:36:26.419Z,3.20
2022-11-05T15:39:22.858Z,3.50
2022-11-05T15:41:41.667Z,3.40
2022-11-05T15:44:24.236Z,3.25
2022-11-05T15:47:25.396Z,3.45
2022-11-05T15:50:01.965Z,3.35
2022-11-05T15:52:36.454Z,3.55
2022-11-05T15:55:13.029Z,3.40
2022-11-05T15:57:58.200Z,3.38
2022-11-05T16:00:29.669Z,3.42
2022-11-05T16:03:45.070Z,3.20
2022-11-05T16:06:52.164Z,3.03
2022-11-05T16:09:22.182Z,2.70
2022-11-05T16:11:54.341Z,3.90
2022-11-05T16:14:22.139Z,3.58
2022-11-05T16:16:53.233Z,3.33
2022-11-05T16:19:40.571Z,3.40
2022-11-05T16:22:15.788Z,3.65
2022-11-05T16:24:43.772Z,3.75
2022-11-05T16:27:19.877Z,3.70
2022-11-05T16:29:53.086Z,3.92
2022-11-05T16:32:31.080Z,3.60
2022-11-05T16:35:00.830Z,3.67
2022-11-05T16:37:38.131Z,4.25
2022-11-05T16:40:25.589Z,3.65
2022-11-05T16:42:53.959Z,3.88
2022-11-05T16:45:25.445Z,4.18
2022-11-05T16:47:52.777Z,4.20
2022-11-05T16:50:30.451Z,3.85
2022-11-05T16:52:58.383Z,4.50
2022-11-05T16:55:25.781Z,4.22
2022-11-05T16:57:54.339Z,4.15
2022-11-05T17:00:22.537Z,4.57
2022-11-05T17:02:50.408Z,4.45
2022-11-05T17:05:24.245Z,4.05
2022-11-05T17:07:52.134Z,4.50
2022-11-05T17:10:20.696Z,4.80
2022-11-05T17:12:48.426Z,5.05
2022-11-05T17:15:24.154Z,5.03
2022-11-05T17:17:52.868Z,4.68
2022-11-05T17:20:49.996Z,4.20
2022-11-05T17:23:22.633Z,5.32
2022-11-05T17:25:52.336Z,4.13
2022-11-05T17:28:20.276Z,5.20
2022-11-05T17:30:52.876Z,5.50
2022-11-05T17:33:22.749Z,4.80
2022-11-05T17:35:50.631Z,4.57
2022-11-05T17:38:18.225Z,5.13
2022-11-05T17:40:45.614Z,5.13
2022-11-05T17:43:13.520Z,5.50
2022-11-05T17:45:42.801Z,5.45
2022-11-05T17:48:10.561Z,5.55
2022-11-05T17:50:45.811Z,5.75
2022-11-05T17:53:14.144Z,5.63
2022-11-05T17:55:42.710Z,5.70
2022-11-05T17:58:10.632Z,5.38
2022-11-05T18:00:38.828Z,5.15
2022-11-05T18:03:06.095Z,5.63
2022-11-05T18:05:34.342Z,6.15
2022-11-05T18:08:01.842Z,6.00
2022-11-05T18:10:29.230Z,5.57
2022-11-05T18:12:56.608Z,5.60
2022-11-05T18:15:23.891Z,5.10
2022-11-05T18:17:51.275Z,5.38
2022-11-05T18:20:19.718Z,5.88
2022-11-05T18:22:50.001Z,5.38
2022-11-05T18:27:45.104Z,7.45
2022-11-05T18:30:15.522Z,8.25
2022-11-05T18:32:44.238Z,7.10
2022-11-05T18:35:13.405Z,6.75
2022-11-05T18:37:50.428Z,6.35
2022-11-05T18:40:17.722Z,6.88
2022-11-05T18:42:45.035Z,6.53
2022-11-05T18:45:12.379Z,6.30
2022-11-05T18:47:39.863Z,7.95
2022-11-05T18:50:09.389Z,7.28
2022-11-05T18:52:39.475Z,7.03
2022-11-05T18:55:07.556Z,6.25
2022-11-05T18:57:35.397Z,7.22
2022-11-05T19:00:05.090Z,6.75
2022-11-05T19:02:32.518Z,6.50
2022-11-05T19:05:27.465Z,6.55
2022-11-05T19:07:47.360Z,6.00
2022-11-05T19:10:15.047Z,6.05
2022-11-05T19:12:42.405Z,6.05
2022-11-05T19:15:10.268Z,6.70
2022-11-05T19:17:37.607Z,8.10
2022-11-05T19:20:05.658Z,20.08
2022-11-05T19:22:33.321Z,17.95
2022-11-05T19:25:00.608Z,13.32
2022-11-05T19:27:27.875Z,10.30
2022-11-05T19:29:55.136Z,9.65
2022-11-05T19:32:22.334Z,10.10
2022-11-05T19:34:49.846Z,9.48
2022-11-05T19:37:17.707Z,7.53
2022-11-05T19:39:45.316Z,6.68
2022-11-05T19:42:12.967Z,6.60
2022-11-05T19:44:40.866Z,6.38
2022-11-05T19:47:08.132Z,6.40
2022-11-05T19:49:35.360Z,6.80
2022-11-05T19:52:02.681Z,10.20
2022-11-05T19:54:30.120Z,11.10
2022-11-05T19:56:57.535Z,14.98
2022-11-05T19:59:24.901Z,10.48
2022-11-05T20:01:52.359Z,8.48
2022-11-05T20:04:20.167Z,6.82
2022-11-05T20:06:47.367Z,6.35
2022-11-05T20:09:23.279Z,6.28
2022-11-05T20:11:53.807Z,7.00
2022-11-05T20:14:21.510Z,6.22
2022-11-05T20:16:49.384Z,6.03
2022-11-05T20:19:19.240Z,6.40
2022-11-05T20:21:46.727Z,6.25
2022-11-05T20:24:22.288Z,8.32
2022-11-05T20:26:53.651Z,6.97
2022-11-05T20:29:21.431Z,6.72
2022-11-05T20:31:49.262Z,5.50
2022-11-05T20:34:16.551Z,6.30
2022-11-05T20:36:43.808Z,5.07
2022-11-05T20:39:11.982Z,6.22
2022-11-05T20:41:39.456Z,5.47
2022-11-05T20:44:06.871Z,5.18
2022-11-05T20:46:34.183Z,5.35
2022-11-05T20:49:01.403Z,5.65
2022-11-05T20:51:29.052Z,6.57
2022-11-05T20:53:58.532Z,9.27
2022-11-05T20:56:29.422Z,14.15
2022-11-05T20:58:58.486Z,7.93
2022-11-05T21:01:29.756Z,6.78
2022-11-05T21:03:57.222Z,6.45
2022-11-05T21:06:24.528Z,6.55
2022-11-05T21:08:52.334Z,11.30
2022-11-05T21:11:20.614Z,13.30
2022-11-05T21:13:48.516Z,19.42
2022-11-05T21:16:18.692Z,17.58
2022-11-05T21:18:46.912Z,11.63
2022-11-05T21:21:19.729Z,10.27
2022-11-05T21:23:47.659Z,8.60
2022-11-05T21:26:16.803Z,7.30
2022-11-05T21:28:44.149Z,7.63
2022-11-05T21:31:11.703Z,22.30
2022-11-05T21:33:39.317Z,10.50
2022-11-05T21:36:08.874Z,6.60
2022-11-05T21:38:37.793Z,6.32
2022-11-05T21:41:05.465Z,5.60
2022-11-05T21:43:33.086Z,6.18
2022-11-05T21:46:02.030Z,5.75
2022-11-05T21:48:30.318Z,5.95
2022-11-05T21:51:16.761Z,5.53
2022-11-05T21:54:02.629Z,4.85
2022-11-05T21:56:48.502Z,5.05
2022-11-05T21:59:36.633Z,6.05
2022-11-05T22:02:04.934Z,9.48
2022-11-05T22:04:34.542Z,8.27
2022-11-05T22:07:02.402Z,9.95
2022-11-05T22:09:30.058Z,6.88
2022-11-05T22:11:58.303Z,5.57
2022-11-05T22:14:26.374Z,4.97
2022-11-05T22:16:54.044Z,4.70
2022-11-05T22:19:22.836Z,5.30
2022-11-05T22:21:50.332Z,4.90
2022-11-05T22:24:25.764Z,4.78
2022-11-05T22:26:53.481Z,6.05
2022-11-05T22:29:20.752Z,5.88
2022-11-05T22:31:48.053Z,5.10
2022-11-05T22:34:15.549Z,4.97
2022-11-05T22:36:42.845Z,9.93
2022-11-05T22:39:11.398Z,7.68
2022-11-05T22:41:38.894Z,5.55
2022-11-05T22:44:06.309Z,5.43
2022-11-05T22:46:33.786Z,4.55
2022-11-05T22:49:01.175Z,4.65
2022-11-05T22:51:30.816Z,17.95
2022-11-05T22:53:59.017Z,5.97
2022-11-05T22:56:29.318Z,5.35
2022-11-05T22:58:57.121Z,4.93
2022-11-05T23:01:25.275Z,5.78
2022-11-05T23:03:54.013Z,7.78
2022-11-05T23:06:42.344Z,5.68
2022-11-05T23:09:43.764Z,5.68
2022-11-05T23:12:25.061Z,4.90
2022-11-05T23:14:53.467Z,4.68
2022-11-05T23:17:39.366Z,5.22
2022-11-05T23:20:28.838Z,4.28
2022-11-05T23:23:15.984Z,4.40
2022-11-05T23:25:43.544Z,4.72
2022-11-05T23:28:11.964Z,4.57
2022-11-05T23:31:02.302Z,3.80
2022-11-05T23:33:33.882Z,4.13
2022-11-05T23:36:20.121Z,4.60
2022-11-05T23:38:47.491Z,4.68
2022-11-05T23:41:33.357Z,4.30
2022-11-05T23:44:19.253Z,7.25
2022-11-05T23:47:22.020Z,7.32
2022-11-05T23:49:50.417Z,6.38
2022-11-05T23:52:17.758Z,5.00
2022-11-05T23:54:44.981Z,5.20
2022-11-05T23:57:12.260Z,4.90
2022-11-05T23:59:39.489Z,4.53
